sensor_id;sensor_type;location;lat;lon;timestamp;pressure;altitude;pressure_sealevel;temperature;humidity
64230;BME280;50547;49.498;0.092;2024-01-06T11:33:51;1013.69;;;7.46;79.97
64230;BME280;50547;49.498;0.092;2024-01-06T11:36:20;1013.69;;;7.50;79.63
64230;BME280;50547;49.498;0.092;2024-01-06T11:38:49;1013.71;;;7.55;79.68
64230;BME280;50547;49.498;0.092;2024-01-06T11:41:48;1013.71;;;7.52;78.54
64230;BME280;50547;49.498;0.092;2024-01-06T11:44:18;1013.71;;;7.42;78.28
64230;BME280;50547;49.498;0.092;2024-01-06T11:46:48;1013.73;;;7.47;79.11
64230;BME280;50547;49.498;0.092;2024-01-06T11:49:17;1013.71;;;7.45;78.72
64230;BME280;50547;49.498;0.092;2024-01-06T11:51:49;1013.69;;;7.48;78.55
64230;BME280;50547;49.498;0.092;2024-01-06T11:54:28;1013.71;;;7.71;78.04
64230;BME280;50547;49.498;0.092;2024-01-06T11:56:57;1013.69;;;7.56;78.81
64230;BME280;50547;49.498;0.092;2024-01-06T11:59:26;1013.63;;;7.53;77.96
64230;BME280;50547;49.498;0.092;2024-01-06T12:01:55;1013.73;;;7.47;77.22
64230;BME280;50547;49.498;0.092;2024-01-06T12:04:24;1013.69;;;7.47;77.14
64230;BME280;50547;49.498;0.092;2024-01-06T12:06:53;1013.73;;;7.52;77.11
64230;BME280;50547;49.498;0.092;2024-01-06T12:09:22;1013.69;;;7.54;77.19
64230;BME280;50547;49.498;0.092;2024-01-06T12:12:01;1013.73;;;7.71;76.52
64230;BME280;50547;49.498;0.092;2024-01-06T12:14:30;1013.61;;;7.50;76.49
64230;BME280;50547;49.498;0.092;2024-01-06T12:16:59;1013.63;;;7.68;76.04
64230;BME280;50547;49.498;0.092;2024-01-06T12:19:29;1013.65;;;7.64;76.58
64230;BME280;50547;49.498;0.092;2024-01-06T12:21:59;1013.57;;;7.53;76.77
64230;BME280;50547;49.498;0.092;2024-01-06T12:24:29;1013.63;;;7.67;75.40
64230;BME280;50547;49.498;0.092;2024-01-06T12:26:58;1013.57;;;7.59;76.29
64230;BME280;50547;49.498;0.092;2024-01-06T12:29:28;1013.61;;;7.55;76.86
64230;BME280;50547;49.498;0.092;2024-01-06T12:31:59;1013.67;;;7.73;75.46
64230;BME280;50547;49.498;0.092;2024-01-06T12:34:29;1013.57;;;7.55;77.02
64230;BME280;50547;49.498;0.092;2024-01-06T12:36:58;1013.61;;;7.50;76.87
64230;BME280;50547;49.498;0.092;2024-01-06T12:39:27;1013.61;;;7.53;76.72
64230;BME280;50547;49.498;0.092;2024-01-06T12:41:57;1013.65;;;7.39;76.98
64230;BME280;50547;49.498;0.092;2024-01-06T12:44:26;1013.65;;;7.57;76.71
64230;BME280;50547;49.498;0.092;2024-01-06T12:46:55;1013.65;;;7.56;77.17
64230;BME280;50547;49.498;0.092;2024-01-06T12:49:24;1013.65;;;7.74;75.61
64230;BME280;50547;49.498;0.092;2024-01-06T12:51:53;1013.57;;;7.52;76.92
64230;BME280;50547;49.498;0.092;2024-01-06T12:54:22;1013.61;;;7.61;76.38
64230;BME280;50547;49.498;0.092;2024-01-06T12:56:51;1013.65;;;7.70;76.74
64230;BME280;50547;49.498;0.092;2024-01-06T12:59:20;1013.65;;;7.81;75.66
64230;BME280;50547;49.498;0.092;2024-01-06T13:01:46;1013.69;;;7.59;77.21
64230;BME280;50547;49.498;0.092;2024-01-06T13:04:15;1013.71;;;7.53;77.18
64230;BME280;50547;49.498;0.092;2024-01-06T13:06:44;1013.79;;;7.49;77.69
64230;BME280;50547;49.498;0.092;2024-01-06T13:09:13;1013.73;;;7.33;77.88
64230;BME280;50547;49.498;0.092;2024-01-06T13:11:43;1013.81;;;7.59;76.87
64230;BME280;50547;49.498;0.092;2024-01-06T13:14:12;1013.83;;;7.50;77.41
64230;BME280;50547;49.498;0.092;2024-01-06T13:16:41;1013.81;;;7.51;77.46
64230;BME280;50547;49.498;0.092;2024-01-06T13:19:10;1013.83;;;7.58;77.36
64230;BME280;50547;49.498;0.092;2024-01-06T13:21:39;1013.91;;;7.71;76.55
64230;BME280;50547;49.498;0.092;2024-01-06T13:24:08;1013.91;;;7.88;76.49
64230;BME280;50547;49.498;0.092;2024-01-06T13:26:37;1013.81;;;7.72;77.05
64230;BME280;50547;49.498;0.092;2024-01-06T13:29:06;1013.85;;;7.59;77.02
64230;BME280;50547;49.498;0.092;2024-01-06T13:31:35;1013.85;;;7.69;76.46
64230;BME280;50547;49.498;0.092;2024-01-06T13:34:01;1013.97;;;7.64;75.77
64230;BME280;50547;49.498;0.092;2024-01-06T13:36:30;1013.91;;;7.56;75.78
64230;BME280;50547;49.498;0.092;2024-01-06T13:39:00;1013.91;;;7.48;75.86
64230;BME280;50547;49.498;0.092;2024-01-06T13:41:29;1013.93;;;7.44;76.14
64230;BME280;50547;49.498;0.092;2024-01-06T13:43:55;1013.97;;;7.62;75.02
64230;BME280;50547;49.498;0.092;2024-01-06T13:46:24;1013.97;;;7.42;75.40
64230;BME280;50547;49.498;0.092;2024-01-06T13:48:53;1013.95;;;7.33;75.38
64230;BME280;50547;49.498;0.092;2024-01-06T13:51:23;1013.97;;;7.55;74.80
64230;BME280;50547;49.498;0.092;2024-01-06T13:53:52;1013.99;;;7.35;75.68
64230;BME280;50547;49.498;0.092;2024-01-06T13:56:21;1014.01;;;7.55;73.97
64230;BME280;50547;49.498;0.092;2024-01-06T13:58:50;1013.95;;;7.26;74.48
64230;BME280;50547;49.498;0.092;2024-01-06T14:01:19;1014.03;;;7.28;74.21
64230;BME280;50547;49.498;0.092;2024-01-06T14:03:48;1014.04;;;7.18;74.28
64230;BME280;50547;49.498;0.092;2024-01-06T14:06:18;1014.04;;;7.15;74.18
64230;BME280;50547;49.498;0.092;2024-01-06T14:08:48;1014.04;;;7.41;72.65
64230;BME280;50547;49.498;0.092;2024-01-06T14:11:17;1014.10;;;7.62;72.38
64230;BME280;50547;49.498;0.092;2024-01-06T14:13:46;1014.16;;;7.56;72.27
64230;BME280;50547;49.498;0.092;2024-01-06T14:16:15;1014.14;;;7.74;72.37
64230;BME280;50547;49.498;0.092;2024-01-06T14:18:44;1014.14;;;7.97;71.41
64230;BME280;50547;49.498;0.092;2024-01-06T14:21:13;1014.18;;;8.08;70.99
64230;BME280;50547;49.498;0.092;2024-01-06T14:23:43;1014.18;;;8.04;71.79
64230;BME280;50547;49.498;0.092;2024-01-06T14:26:12;1014.22;;;7.85;72.16
64230;BME280;50547;49.498;0.092;2024-01-06T14:28:48;1014.22;;;7.38;73.94
64230;BME280;50547;49.498;0.092;2024-01-06T14:31:18;1014.26;;;7.51;72.71
64230;BME280;50547;49.498;0.092;2024-01-06T14:33:47;1014.26;;;7.51;72.34
64230;BME280;50547;49.498;0.092;2024-01-06T14:36:16;1014.30;;;7.36;73.10
64230;BME280;50547;49.498;0.092;2024-01-06T14:38:45;1014.38;;;7.82;71.04
64230;BME280;50547;49.498;0.092;2024-01-06T14:41:24;1014.36;;;7.69;72.01
64230;BME280;50547;49.498;0.092;2024-01-06T14:43:53;1014.40;;;7.82;71.60
64230;BME280;50547;49.498;0.092;2024-01-06T14:46:22;1014.42;;;7.63;72.69
64230;BME280;50547;49.498;0.092;2024-01-06T14:48:51;1014.45;;;7.93;71.58
64230;BME280;50547;49.498;0.092;2024-01-06T14:51:20;1014.49;;;7.62;72.62
64230;BME280;50547;49.498;0.092;2024-01-06T14:53:49;1014.63;;;7.37;73.00
64230;BME280;50547;49.498;0.092;2024-01-06T14:56:18;1014.59;;;7.33;72.71
64230;BME280;50547;49.498;0.092;2024-01-06T14:58:47;1014.55;;;7.47;72.29
64230;BME280;50547;49.498;0.092;2024-01-06T15:01:16;1014.53;;;7.57;71.74
64230;BME280;50547;49.498;0.092;2024-01-06T15:03:45;1014.55;;;7.65;71.69
64230;BME280;50547;49.498;0.092;2024-01-06T15:06:14;1014.57;;;7.30;73.83
64230;BME280;50547;49.498;0.092;2024-01-06T15:08:43;1014.65;;;7.50;72.57
64230;BME280;50547;49.498;0.092;2024-01-06T15:11:12;1014.73;;;7.52;72.08
64230;BME280;50547;49.498;0.092;2024-01-06T15:13:41;1014.73;;;7.27;72.26
64230;BME280;50547;49.498;0.092;2024-01-06T15:16:10;1014.79;;;7.29;71.66
64230;BME280;50547;49.498;0.092;2024-01-06T15:18:39;1014.83;;;7.20;71.67
64230;BME280;50547;49.498;0.092;2024-01-06T15:21:08;1014.79;;;7.11;71.97
64230;BME280;50547;49.498;0.092;2024-01-06T15:23:37;1014.89;;;7.16;71.59
64230;BME280;50547;49.498;0.092;2024-01-06T15:26:06;1014.89;;;7.11;71.74
64230;BME280;50547;49.498;0.092;2024-01-06T15:28:35;1014.79;;;7.19;71.36
64230;BME280;50547;49.498;0.092;2024-01-06T15:31:04;1014.85;;;7.22;71.23
64230;BME280;50547;49.498;0.092;2024-01-06T15:33:33;1014.94;;;7.16;71.98
64230;BME280;50547;49.498;0.092;2024-01-06T15:36:03;1014.98;;;7.29;71.26
64230;BME280;50547;49.498;0.092;2024-01-06T15:38:32;1015.00;;;7.40;71.13
64230;BME280;50547;49.498;0.092;2024-01-06T15:41:01;1015.02;;;7.56;70.36
64230;BME280;50547;49.498;0.092;2024-01-06T15:43:31;1015.08;;;7.64;70.52
64230;BME280;50547;49.498;0.092;2024-01-06T15:46:00;1015.04;;;7.65;71.26
64230;BME280;50547;49.498;0.092;2024-01-06T15:48:29;1015.02;;;7.66;71.20
64230;BME280;50547;49.498;0.092;2024-01-06T15:50:58;1015.04;;;7.67;71.20
64230;BME280;50547;49.498;0.092;2024-01-06T15:53:27;1015.12;;;7.72;71.61
64230;BME280;50547;49.498;0.092;2024-01-06T15:55:56;1015.08;;;7.73;71.96
64230;BME280;50547;49.498;0.092;2024-01-06T15:58:25;1015.12;;;7.76;71.73
64230;BME280;50547;49.498;0.092;2024-01-06T16:00:54;1015.16;;;7.92;71.52
64230;BME280;50547;49.498;0.092;2024-01-06T16:03:23;1015.18;;;7.92;71.25
64230;BME280;50547;49.498;0.092;2024-01-06T16:05:53;1015.20;;;7.95;71.09
64230;BME280;50547;49.498;0.092;2024-01-06T16:08:21;1015.28;;;7.84;72.06
64230;BME280;50547;49.498;0.092;2024-01-06T16:10:51;1015.24;;;7.93;71.94
64230;BME280;50547;49.498;0.092;2024-01-06T16:13:18;1015.28;;;7.75;72.95
64230;BME280;50547;49.498;0.092;2024-01-06T16:15:47;1015.28;;;7.78;71.88
64230;BME280;50547;49.498;0.092;2024-01-06T16:18:16;1015.30;;;7.76;71.72
64230;BME280;50547;49.498;0.092;2024-01-06T16:20:45;1015.30;;;7.65;71.60
64230;BME280;50547;49.498;0.092;2024-01-06T16:23:15;1015.36;;;7.60;71.91
64230;BME280;50547;49.498;0.092;2024-01-06T16:25:44;1015.37;;;7.61;71.46
64230;BME280;50547;49.498;0.092;2024-01-06T16:28:13;1015.36;;;7.69;71.09
64230;BME280;50547;49.498;0.092;2024-01-06T16:30:39;1015.43;;;7.83;70.72
64230;BME280;50547;49.498;0.092;2024-01-06T16:33:09;1015.47;;;7.75;71.01
64230;BME280;50547;49.498;0.092;2024-01-06T16:35:43;1015.47;;;7.54;72.03
64230;BME280;50547;49.498;0.092;2024-01-06T16:38:12;1015.45;;;7.78;71.39
64230;BME280;50547;49.498;0.092;2024-01-06T16:40:42;1015.43;;;7.90;70.34
64230;BME280;50547;49.498;0.092;2024-01-06T16:43:11;1015.45;;;7.92;70.70
64230;BME280;50547;49.498;0.092;2024-01-06T16:45:40;1015.45;;;7.94;69.98
64230;BME280;50547;49.498;0.092;2024-01-06T16:48:09;1015.47;;;7.98;70.25
64230;BME280;50547;49.498;0.092;2024-01-06T16:50:38;1015.53;;;8.04;70.37
64230;BME280;50547;49.498;0.092;2024-01-06T16:53:28;1015.53;;;7.83;70.97
64230;BME280;50547;49.498;0.092;2024-01-06T16:55:57;1015.55;;;7.72;72.02
64230;BME280;50547;49.498;0.092;2024-01-06T16:58:26;1015.55;;;7.83;71.26
64230;BME280;50547;49.498;0.092;2024-01-06T17:00:55;1015.57;;;7.84;71.38
64230;BME280;50547;49.498;0.092;2024-01-06T17:03:24;1015.53;;;7.80;70.93
64230;BME280;50547;49.498;0.092;2024-01-06T17:05:53;1015.57;;;7.77;71.15
64230;BME280;50547;49.498;0.092;2024-01-06T17:08:22;1015.63;;;7.81;70.83
64230;BME280;50547;49.498;0.092;2024-01-06T17:10:51;1015.65;;;7.79;70.24
64230;BME280;50547;49.498;0.092;2024-01-06T17:13:20;1015.65;;;7.53;71.29
64230;BME280;50547;49.498;0.092;2024-01-06T17:15:50;1015.67;;;7.68;70.66
64230;BME280;50547;49.498;0.092;2024-01-06T17:18:19;1015.69;;;7.50;71.74
64230;BME280;50547;49.498;0.092;2024-01-06T17:20:48;1015.67;;;7.60;71.68
64230;BME280;50547;49.498;0.092;2024-01-06T17:23:17;1015.91;;;7.83;71.07
64230;BME280;50547;49.498;0.092;2024-01-06T17:25:47;1015.83;;;7.65;72.65
64230;BME280;50547;49.498;0.092;2024-01-06T17:28:16;1015.83;;;7.58;73.30
64230;BME280;50547;49.498;0.092;2024-01-06T17:30:45;1015.89;;;7.58;72.54
64230;BME280;50547;49.498;0.092;2024-01-06T17:33:14;1015.93;;;7.55;72.67
64230;BME280;50547;49.498;0.092;2024-01-06T17:35:43;1015.93;;;7.58;72.24
64230;BME280;50547;49.498;0.092;2024-01-06T17:38:12;1015.95;;;7.63;71.33
64230;BME280;50547;49.498;0.092;2024-01-06T17:40:41;1015.95;;;7.69;70.85
64230;BME280;50547;49.498;0.092;2024-01-06T17:43:10;1016.07;;;7.55;70.92
64230;BME280;50547;49.498;0.092;2024-01-06T17:45:39;1016.07;;;7.78;69.86
64230;BME280;50547;49.498;0.092;2024-01-06T17:48:09;1016.07;;;7.61;68.93
64230;BME280;50547;49.498;0.092;2024-01-06T17:50:38;1016.09;;;7.74;68.34
64230;BME280;50547;49.498;0.092;2024-01-06T17:53:07;1016.11;;;7.63;69.55
64230;BME280;50547;49.498;0.092;2024-01-06T17:55:36;1016.13;;;7.71;68.63
64230;BME280;50547;49.498;0.092;2024-01-06T17:58:05;1016.11;;;7.74;68.73
64230;BME280;50547;49.498;0.092;2024-01-06T18:00:34;1016.15;;;7.62;69.95
64230;BME280;50547;49.498;0.092;2024-01-06T18:03:04;1016.17;;;7.81;69.36
64230;BME280;50547;49.498;0.092;2024-01-06T18:05:33;1016.17;;;7.86;69.43
64230;BME280;50547;49.498;0.092;2024-01-06T18:08:02;1016.19;;;7.44;72.73
64230;BME280;50547;49.498;0.092;2024-01-06T18:10:31;1016.17;;;7.56;72.30
64230;BME280;50547;49.498;0.092;2024-01-06T18:13:00;1016.26;;;7.72;71.77
64230;BME280;50547;49.498;0.092;2024-01-06T18:15:29;1016.26;;;7.83;71.11
64230;BME280;50547;49.498;0.092;2024-01-06T18:17:58;1016.22;;;7.69;72.10
64230;BME280;50547;49.498;0.092;2024-01-06T18:20:27;1016.24;;;7.66;72.43
64230;BME280;50547;49.498;0.092;2024-01-06T18:22:56;1016.26;;;7.84;71.64
64230;BME280;50547;49.498;0.092;2024-01-06T18:25:26;1016.26;;;8.13;70.77
64230;BME280;50547;49.498;0.092;2024-01-06T18:27:55;1016.30;;;7.93;71.57
64230;BME280;50547;49.498;0.092;2024-01-06T18:30:24;1016.28;;;7.90;71.68
64230;BME280;50547;49.498;0.092;2024-01-06T18:32:53;1016.40;;;8.15;70.61
64230;BME280;50547;49.498;0.092;2024-01-06T18:35:23;1016.38;;;7.70;72.34
64230;BME280;50547;49.498;0.092;2024-01-06T18:37:52;1016.38;;;7.92;70.78
64230;BME280;50547;49.498;0.092;2024-01-06T18:40:22;1016.44;;;7.72;71.26
64230;BME280;50547;49.498;0.092;2024-01-06T18:42:52;1016.46;;;7.71;70.71
64230;BME280;50547;49.498;0.092;2024-01-06T18:45:21;1016.46;;;7.86;69.95
64230;BME280;50547;49.498;0.092;2024-01-06T18:47:50;1016.42;;;8.03;69.09
64230;BME280;50547;49.498;0.092;2024-01-06T18:50:19;1016.46;;;7.95;70.04
64230;BME280;50547;49.498;0.092;2024-01-06T18:52:48;1016.50;;;8.01;70.06
64230;BME280;50547;49.498;0.092;2024-01-06T18:55:17;1016.46;;;8.02;70.17
64230;BME280;50547;49.498;0.092;2024-01-06T18:57:46;1016.46;;;8.18;69.68
64230;BME280;50547;49.498;0.092;2024-01-06T19:00:16;1016.52;;;7.92;71.99
64230;BME280;50547;49.498;0.092;2024-01-06T19:02:45;1016.50;;;7.82;73.10
64230;BME280;50547;49.498;0.092;2024-01-06T19:05:14;1016.52;;;7.86;72.99
